Alsey, Illinois
Current Conditions -  °F | °C
As of 3:35 AM on Thursday 23 Oct 2014 (Local Time) from KIJX Reporting Station
Clear Clear  
Wind Chill: 41°   Ceiling: Unl
Heat Index: 41°   Visibility: 10mi
Dew Point: 37°   Wind: 3mph
Humidity: 86%   Direction: 130°SE
Pressure: 30.2"   Gusts: NA
Location:  39.56°N, 90.43°W
Report Text: KIJX 230835Z AUTO 13003KT 10SM CLR 05/03 A3020 RMK AO2 T00480026
Loading
Personal Weather Stations






























Interactive Weather Map
Tropical Storm Tracking
New forecast layout! Learn more

10-Day Weather Forecast

Advertisements
Track Severe Weather on mobile